Time;durP1;ratioP1;P1;durP2;ratioP2;P2;SDS_P1;SDS_P2;PMS_P1;PMS_P2;Temp;Humidity;BMP_temperature;BMP_pressure;BME280_temperature;BME280_humidity;BME280_pressure;Samples;Min_cycle;Max_cycle;Signal;HPM_P1;HPM_P2
2022/06/13 00:01:11;;;;;;;9.07;5.20;;;19.10;99.90;;;;;;4996844;28;20246;-71
2022/06/13 00:03:39;;;;;;;9.20;5.10;;;19.10;99.90;;;;;;4995681;28;20724;-68
2022/06/13 00:06:07;;;;;;;7.17;5.10;;;19.00;99.90;;;;;;4994452;28;20247;-69
2022/06/13 00:08:34;;;;;;;9.23;5.13;;;19.00;99.90;;;;;;4994907;28;20211;-68
2022/06/13 00:11:01;;;;;;;6.53;5.00;;;18.90;99.90;;;;;;4994755;28;20299;-68
2022/06/13 00:13:28;;;;;;;8.23;5.30;;;18.90;99.90;;;;;;4996151;28;20189;-69
2022/06/13 00:15:55;;;;;;;9.73;5.93;;;18.80;99.90;;;;;;4977847;28;20219;-71
2022/06/13 00:18:23;;;;;;;9.27;6.13;;;18.80;99.90;;;;;;5010373;28;20674;-68
2022/06/13 00:20:50;;;;;;;9.37;5.80;;;18.70;99.90;;;;;;4995135;28;20612;-69
2022/06/13 00:23:17;;;;;;;7.73;5.67;;;18.70;99.90;;;;;;4994266;28;20193;-69
2022/06/13 00:25:44;;;;;;;12.33;6.53;;;18.80;99.90;;;;;;4994279;28;20235;-68
2022/06/13 00:28:11;;;;;;;10.37;6.90;;;18.80;99.90;;;;;;4994267;28;20287;-69
2022/06/13 00:30:38;;;;;;;7.80;6.37;;;18.80;99.90;;;;;;4994174;28;20299;-69
2022/06/13 00:33:05;;;;;;;10.33;6.63;;;18.90;99.90;;;;;;4994269;28;20207;-69
2022/06/13 00:35:32;;;;;;;10.43;6.80;;;18.90;99.90;;;;;;4993617;28;20316;-69
2022/06/13 00:37:58;;;;;;;8.80;6.80;;;18.90;99.90;;;;;;4995451;28;20193;-70
2022/06/13 00:40:26;;;;;;;9.23;6.87;;;18.90;99.90;;;;;;4995118;28;20197;-69
2022/06/13 00:42:53;;;;;;;8.97;7.33;;;19.00;99.90;;;;;;4993973;28;20196;-70
2022/06/13 00:45:26;;;;;;;8.23;6.67;;;19.00;99.90;;;;;;4995061;28;20250;-70
2022/06/13 00:47:56;;;;;;;11.77;7.70;;;19.00;99.90;;;;;;4995129;28;20228;-70
2022/06/13 00:50:40;;;;;;;9.30;7.03;;;19.10;99.90;;;;;;4993723;28;20201;-70
2022/06/13 00:53:16;;;;;;;12.27;8.00;;;19.00;99.90;;;;;;4993879;28;20602;-73
2022/06/13 00:55:48;;;;;;;11.47;8.00;;;18.90;99.90;;;;;;4993245;28;20223;-71
2022/06/13 00:58:16;;;;;;;10.23;7.73;;;18.90;99.90;;;;;;4993395;28;20541;-71
2022/06/13 01:00:46;;;;;;;12.73;7.67;;;18.90;99.90;;;;;;4993264;28;20201;-73
2022/06/13 01:03:13;;;;;;;11.50;7.17;;;18.80;99.90;;;;;;4993561;28;20231;-72
2022/06/13 01:05:44;;;;;;;13.13;7.63;;;18.70;99.90;;;;;;4993336;28;20254;-70
2022/06/13 01:08:11;;;;;;;13.03;7.90;;;18.60;99.90;;;;;;4993512;28;20197;-70
2022/06/13 01:14:07;;;;;;;13.37;8.40;;;17.90;99.90;;;;;;4993234;28;20193;-72
2022/06/13 01:16:58;;;;;;;12.47;8.80;;;17.80;99.90;;;;;;4993123;28;20227;-71
2022/06/13 01:19:55;;;;;;;11.07;8.23;;;17.80;99.90;;;;;;4993059;28;20291;-70
2022/06/13 01:22:37;;;;;;;13.57;8.77;;;17.70;99.90;;;;;;4993389;28;20400;-72
2022/06/13 01:25:41;;;;;;;14.07;8.83;;;17.60;99.90;;;;;;4993016;28;20244;-71
2022/06/13 01:28:45;;;;;;;13.40;8.90;;;17.60;99.90;;;;;;4992681;28;20192;-71
2022/06/13 01:31:26;;;;;;;15.53;9.10;;;17.60;99.90;;;;;;4993097;28;20207;-71
2022/06/13 01:34:04;;;;;;;11.23;8.53;;;17.50;99.90;;;;;;4993211;28;20197;-74
2022/06/13 01:36:43;;;;;;;11.90;8.90;;;17.40;99.90;;;;;;4992439;28;20223;-70
2022/06/13 01:39:32;;;;;;;13.17;9.30;;;17.30;99.90;;;;;;4993039;28;20214;-70
2022/06/13 01:42:17;;;;;;;14.43;9.10;;;17.30;99.90;;;;;;4993265;28;20205;-71
2022/06/13 01:45:07;;;;;;;13.50;9.00;;;17.20;99.90;;;;;;4992948;28;20561;-70
2022/06/13 01:47:56;;;;;;;13.07;8.73;;;17.20;99.90;;;;;;4992570;28;20674;-70
2022/06/13 01:50:37;;;;;;;15.83;9.20;;;17.10;99.90;;;;;;4992870;28;20606;-70
2022/06/13 01:53:18;;;;;;;12.80;9.00;;;17.00;99.90;;;;;;4992822;28;20639;-71
2022/06/13 01:56:01;;;;;;;15.97;8.93;;;17.00;99.90;;;;;;4992458;28;20211;-71
2022/06/13 01:58:48;;;;;;;12.77;8.90;;;16.90;99.90;;;;;;4992894;28;20335;-71
2022/06/13 02:01:43;;;;;;;13.20;8.77;;;16.80;99.90;;;;;;4992537;28;20287;-70
2022/06/13 02:04:31;;;;;;;15.90;8.80;;;16.80;99.90;;;;;;4992106;28;20837;-70
2022/06/13 02:07:04;;;;;;;20.97;9.03;;;16.80;99.90;;;;;;4992181;28;20227;-71
2022/06/13 02:09:51;;;;;;;14.37;8.90;;;16.70;99.90;;;;;;4992435;28;20243;-71
2022/06/13 02:12:22;;;;;;;14.80;8.67;;;16.70;99.90;;;;;;4992196;28;20211;-71
2022/06/13 02:15:03;;;;;;;17.57;8.40;;;16.60;99.90;;;;;;4992470;28;20291;-71
2022/06/13 02:17:36;;;;;;;15.20;7.93;;;16.50;99.90;;;;;;4992358;28;20291;-71
2022/06/13 02:20:08;;;;;;;13.30;8.00;;;16.50;99.90;;;;;;4992457;28;20661;-71
2022/06/13 02:22:38;;;;;;;15.00;7.87;;;16.50;99.90;;;;;;4993319;28;20193;-71
2022/06/13 02:25:17;;;;;;;11.70;7.27;;;16.50;99.90;;;;;;4993404;28;20220;-72
2022/06/13 02:27:50;;;;;;;14.47;7.53;;;16.50;99.90;;;;;;4992987;28;20204;-69
2022/06/13 02:30:20;;;;;;;12.83;7.27;;;16.40;99.90;;;;;;4992182;28;20207;-70
2022/06/13 02:33:20;;;;;;;12.93;6.80;;;16.50;99.90;;;;;;4992287;28;20296;-71
2022/06/13 02:35:56;;;;;;;12.67;7.60;;;16.40;99.90;;;;;;4991944;28;20307;-71
2022/06/13 02:38:31;;;;;;;12.47;7.13;;;16.40;99.90;;;;;;4992456;28;20204;-69
2022/06/13 02:41:03;;;;;;;11.73;7.87;;;16.40;99.90;;;;;;4995072;28;20287;-69
2022/06/13 02:43:38;;;;;;;13.83;7.50;;;16.40;99.90;;;;;;4996351;28;20553;-69
2022/06/13 02:46:21;;;;;;;12.27;7.50;;;16.40;99.90;;;;;;4995866;28;20319;-70
2022/06/13 02:49:00;;;;;;;14.87;7.87;;;16.30;99.90;;;;;;4996136;28;20232;-69
2022/06/13 02:52:05;;;;;;;11.03;7.63;;;16.30;99.90;;;;;;4996148;28;20228;-69
2022/06/13 02:54:46;;;;;;;11.33;7.53;;;16.30;99.90;;;;;;4995744;28;20232;-72
2022/06/13 02:57:32;;;;;;;11.77;8.00;;;16.30;99.90;;;;;;4997529;28;20653;-69
2022/06/13 03:00:05;;;;;;;12.67;7.80;;;16.30;99.90;;;;;;4995743;28;20291;-70
2022/06/13 03:02:32;;;;;;;14.17;8.03;;;16.30;99.90;;;;;;4995394;28;20331;-69
2022/06/13 03:05:12;;;;;;;11.67;8.20;;;16.40;99.90;;;;;;4995733;28;20288;-70
2022/06/13 03:07:48;;;;;;;11.70;8.33;;;16.30;99.90;;;;;;4995942;28;20295;-69
2022/06/13 03:10:26;;;;;;;15.33;8.27;;;16.30;99.90;;;;;;4995852;28;20287;-70
2022/06/13 03:13:07;;;;;;;12.37;7.97;;;16.30;99.90;;;;;;4995541;28;20205;-70
2022/06/13 03:15:55;;;;;;;14.33;8.67;;;16.30;99.90;;;;;;4995524;28;20221;-70
2022/06/13 03:18:28;;;;;;;14.10;8.43;;;16.30;99.90;;;;;;4995412;28;20209;-69
2022/06/13 03:21:04;;;;;;;13.27;8.67;;;16.30;99.90;;;;;;4995779;28;20553;-70
2022/06/13 03:23:45;;;;;;;13.47;8.60;;;16.40;99.90;;;;;;4995226;28;20288;-70
2022/06/13 03:26:37;;;;;;;14.07;9.30;;;16.50;99.90;;;;;;4995266;28;20290;-71
2022/06/13 03:29:36;;;;;;;13.63;8.90;;;16.60;99.90;;;;;;4995272;28;20291;-70
2022/06/13 03:32:10;;;;;;;14.33;9.90;;;16.60;99.90;;;;;;4993075;28;20207;-71
2022/06/13 03:34:42;;;;;;;17.27;10.17;;;16.70;99.90;;;;;;4996514;28;20184;-70
2022/06/13 03:37:17;;;;;;;13.40;9.90;;;16.60;99.90;;;;;;4996518;28;20213;-69
2022/06/13 03:39:51;;;;;;;15.03;10.40;;;16.70;99.90;;;;;;4995389;28;20192;-72
2022/06/13 03:42:38;;;;;;;13.97;10.63;;;16.70;99.90;;;;;;4995245;28;20212;-70
2022/06/13 03:45:16;;;;;;;15.13;10.23;;;16.70;99.90;;;;;;4994994;28;20323;-72
2022/06/13 03:48:03;;;;;;;17.03;11.17;;;16.80;99.90;;;;;;4994885;28;20228;-71
2022/06/13 03:50:38;;;;;;;18.67;11.03;;;16.80;99.90;;;;;;4994492;28;20201;-69
2022/06/13 03:53:29;;;;;;;18.13;11.33;;;16.80;99.90;;;;;;4995136;28;20203;-70
2022/06/13 03:56:06;;;;;;;17.53;11.50;;;16.80;99.90;;;;;;4994410;28;20219;-69
2022/06/13 03:58:38;;;;;;;16.40;10.57;;;16.90;99.90;;;;;;4994537;28;20242;-69
2022/06/13 04:01:11;;;;;;;16.37;11.73;;;16.90;99.90;;;;;;4994863;28;20247;-70
2022/06/13 04:03:39;;;;;;;15.50;12.37;;;17.00;99.90;;;;;;4995570;28;20249;-70
2022/06/13 04:06:39;;;;;;;15.90;11.37;;;17.10;99.90;;;;;;4995687;28;20245;-71
2022/06/13 04:09:18;;;;;;;19.53;12.93;;;17.00;99.90;;;;;;4995959;28;20189;-69
2022/06/13 04:12:14;;;;;;;17.43;12.40;;;17.00;99.90;;;;;;4995809;28;20192;-69
2022/06/13 04:14:59;;;;;;;18.80;12.70;;;17.10;99.90;;;;;;4995518;28;20669;-70
2022/06/13 04:17:31;;;;;;;20.23;13.47;;;17.20;99.90;;;;;;4995927;28;20596;-70
2022/06/13 04:20:19;;;;;;;19.47;14.27;;;17.20;99.90;;;;;;4994285;28;20291;-70
2022/06/13 04:22:56;;;;;;;19.37;13.83;;;17.10;99.90;;;;;;4994293;28;20284;-70
2022/06/13 04:25:31;;;;;;;17.23;13.43;;;17.10;99.90;;;;;;4995279;28;20214;-70
2022/06/13 04:28:05;;;;;;;22.97;13.87;;;17.20;99.90;;;;;;4995518;28;20272;-70
2022/06/13 04:30:35;;;;;;;19.40;14.50;;;17.20;99.90;;;;;;4994197;28;20742;-70
2022/06/13 04:33:23;;;;;;;20.83;14.87;;;17.00;99.90;;;;;;4994041;28;20243;-70
2022/06/13 04:35:51;;;;;;;22.20;15.00;;;17.00;99.90;;;;;;4994107;28;20745;-70
2022/06/13 04:38:20;;;;;;;20.00;14.93;;;17.10;99.90;;;;;;4993945;28;20311;-70
2022/06/13 04:41:00;;;;;;;24.20;14.70;;;17.10;99.90;;;;;;4994292;28;20709;-70
2022/06/13 04:43:33;;;;;;;21.50;14.57;;;17.10;99.90;;;;;;4993557;28;20231;-70
2022/06/13 04:46:05;;;;;;;28.20;16.00;;;17.10;99.90;;;;;;4993625;28;20221;-70
2022/06/13 04:48:32;;;;;;;22.80;15.50;;;17.20;99.90;;;;;;4994106;28;20657;-70
2022/06/13 04:51:05;;;;;;;18.77;13.57;;;17.30;99.90;;;;;;4994967;28;20193;-70
2022/06/13 04:53:41;;;;;;;19.83;14.70;;;17.30;99.90;;;;;;4993701;28;20640;-70
2022/06/13 04:56:08;;;;;;;21.67;14.83;;;17.40;99.90;;;;;;4993460;28;20205;-70
2022/06/13 04:58:38;;;;;;;21.77;15.07;;;17.50;99.90;;;;;;4993426;28;20235;-70
2022/06/13 05:01:40;;;;;;;19.37;14.50;;;17.40;99.90;;;;;;4993423;28;20726;-70
2022/06/13 05:04:14;;;;;;;20.03;15.20;;;17.40;99.90;;;;;;4992454;28;20233;-70
2022/06/13 05:06:48;;;;;;;20.10;14.40;;;17.50;99.90;;;;;;4992928;28;20238;-69
2022/06/13 05:09:43;;;;;;;19.63;14.93;;;17.60;99.90;;;;;;4992982;28;20638;-68
2022/06/13 05:12:17;;;;;;;16.50;14.27;;;17.60;99.90;;;;;;4991073;28;20621;-69
2022/06/13 05:14:56;;;;;;;21.20;14.90;;;17.60;99.90;;;;;;4993126;28;20291;-70
2022/06/13 05:18:07;;;;;;;17.17;14.37;;;17.60;99.90;;;;;;4993143;28;20295;-69
2022/06/13 05:20:59;;;;;;;18.03;13.57;;;17.50;99.90;;;;;;4994233;28;20200;-76
2022/06/13 05:23:38;;;;;;;21.27;14.57;;;17.70;99.90;;;;;;4993017;28;20209;-72
2022/06/13 05:26:06;;;;;;;16.37;13.50;;;17.90;99.90;;;;;;4992867;28;20263;-79
2022/06/13 05:28:35;;;;;;;18.00;14.03;;;18.00;99.90;;;;;;4993125;28;20210;-71
2022/06/13 05:31:08;;;;;;;18.27;13.63;;;18.00;99.90;;;;;;4993238;28;20219;-69
2022/06/13 05:33:40;;;;;;;18.17;13.20;;;18.20;99.90;;;;;;4992940;28;20266;-68
2022/06/13 05:36:12;;;;;;;17.43;13.30;;;18.00;99.90;;;;;;4992462;28;20225;-69
2022/06/13 05:38:46;;;;;;;16.80;13.53;;;18.10;99.90;;;;;;4993117;28;20698;-72
2022/06/13 05:41:13;;;;;;;17.07;12.90;;;18.10;99.90;;;;;;4992876;28;20200;-69
2022/06/13 05:43:40;;;;;;;18.77;13.70;;;18.00;99.90;;;;;;4992875;28;20307;-69
2022/06/13 05:46:12;;;;;;;16.97;13.47;;;18.00;99.90;;;;;;4992655;28;20245;-69
2022/06/13 05:48:39;;;;;;;19.10;13.20;;;18.00;99.90;;;;;;4992520;28;20299;-69
2022/06/13 05:51:06;;;;;;;22.37;13.03;;;18.10;99.90;;;;;;4993953;28;20188;-70
2022/06/13 05:53:33;;;;;;;18.70;13.20;;;18.20;99.90;;;;;;4992373;28;20651;-70
2022/06/13 05:56:01;;;;;;;20.93;13.13;;;18.20;99.90;;;;;;4992395;28;20249;-71
2022/06/13 05:58:29;;;;;;;18.73;12.27;;;18.20;99.90;;;;;;4992394;28;20288;-72
2022/06/13 06:00:57;;;;;;;20.23;13.07;;;18.20;99.90;;;;;;4993722;28;20193;-70
2022/06/13 06:03:25;;;;;;;18.47;12.97;;;18.20;99.90;;;;;;4992141;28;20224;-70
2022/06/13 06:05:54;;;;;;;18.60;12.83;;;18.20;99.90;;;;;;4991985;28;20209;-70
2022/06/13 06:08:35;;;;;;;15.20;12.70;;;18.00;99.90;;;;;;4992453;28;20379;-73
2022/06/13 06:11:03;;;;;;;15.40;13.10;;;17.90;99.90;;;;;;4976766;28;20208;-73
2022/06/13 06:13:30;;;;;;;16.87;12.93;;;18.00;99.90;;;;;;4992145;28;20650;-71
2022/06/13 06:16:00;;;;;;;15.67;12.90;;;18.00;99.90;;;;;;4991315;28;20275;-71
2022/06/13 06:18:29;;;;;;;15.70;11.87;;;17.90;99.90;;;;;;4993883;28;20196;-69
2022/06/13 06:20:57;;;;;;;15.13;12.13;;;18.00;99.90;;;;;;4992507;28;20197;-70
2022/06/13 06:23:25;;;;;;;15.47;12.50;;;18.00;99.90;;;;;;4992233;28;20279;-72
2022/06/13 06:25:52;;;;;;;15.73;12.70;;;18.00;99.90;;;;;;4992034;28;20232;-69
2022/06/13 06:28:22;;;;;;;16.13;11.67;;;18.00;99.90;;;;;;4992099;28;20232;-71
2022/06/13 06:30:52;;;;;;;14.07;10.83;;;18.00;99.90;;;;;;4992166;28;20293;-69
2022/06/13 06:33:21;;;;;;;16.03;10.27;;;18.10;99.90;;;;;;4992353;28;20201;-69
2022/06/13 06:35:51;;;;;;;13.17;10.20;;;18.10;99.90;;;;;;4991821;28;20244;-69
2022/06/13 06:38:22;;;;;;;14.40;10.57;;;18.30;99.90;;;;;;4992134;28;20228;-69
2022/06/13 06:40:48;;;;;;;12.53;10.63;;;18.50;99.90;;;;;;4993194;28;20276;-69
2022/06/13 06:43:15;;;;;;;16.03;10.57;;;18.80;99.90;;;;;;4993132;28;20189;-69
2022/06/13 06:45:43;;;;;;;15.07;9.97;;;18.90;99.90;;;;;;4992071;28;20211;-70
2022/06/13 06:48:14;;;;;;;12.47;9.43;;;19.00;99.90;;;;;;4991971;28;20217;-71
2022/06/13 06:50:44;;;;;;;17.23;10.27;;;19.10;99.90;;;;;;4991830;28;20295;-70
2022/06/13 06:53:12;;;;;;;17.03;10.27;;;19.30;99.90;;;;;;4991911;28;20239;-74
2022/06/13 07:01:14;;;;;;;10.47;7.47;;;19.80;99.90;;;;;;4991795;28;20383;-73
2022/06/13 07:03:43;;;;;;;14.23;7.83;;;19.80;99.90;;;;;;4991430;28;20228;-70
2022/06/13 07:06:12;;;;;;;8.67;6.60;;;19.90;99.90;;;;;;4990693;28;20275;-69
2022/06/13 07:08:39;;;;;;;9.10;7.40;;;20.00;99.90;;;;;;4991991;28;20299;-69
2022/06/13 07:14:03;;;;;;;11.37;6.60;;;20.20;99.90;;;;;;4980101;28;20646;-70
2022/06/13 07:16:30;;;;;;;13.47;7.27;;;20.30;99.90;;;;;;4991672;28;20201;-73
2022/06/13 07:18:57;;;;;;;10.03;7.60;;;20.40;99.90;;;;;;4991825;28;20603;-70
2022/06/13 07:21:24;;;;;;;8.63;6.80;;;20.40;99.90;;;;;;4991716;28;20295;-70
2022/06/13 07:23:51;;;;;;;10.70;6.70;;;20.50;99.90;;;;;;4991768;28;20243;-70
2022/06/13 07:26:18;;;;;;;14.93;7.70;;;20.70;99.90;;;;;;4992981;28;20207;-70
2022/06/13 07:28:51;;;;;;;8.50;6.47;;;20.70;99.90;;;;;;4995253;28;20208;-69
2022/06/13 07:31:21;;;;;;;10.93;7.20;;;20.90;99.90;;;;;;4995220;28;20287;-67
2022/06/13 07:33:50;;;;;;;10.37;6.90;;;21.00;99.90;;;;;;4994918;28;20197;-70
2022/06/13 07:36:17;;;;;;;9.07;6.73;;;21.00;99.90;;;;;;4995035;28;20227;-68
2022/06/13 07:38:45;;;;;;;8.40;7.00;;;21.10;99.90;;;;;;4996312;28;20300;-72
2022/06/13 07:41:17;;;;;;;9.87;6.33;;;21.00;99.90;;;;;;4995031;28;20201;-69
2022/06/13 07:43:45;;;;;;;7.83;5.53;;;21.20;99.90;;;;;;4995446;28;20653;-69
2022/06/13 07:46:12;;;;;;;6.30;5.37;;;21.10;99.90;;;;;;4994675;28;20300;-69
2022/06/13 07:48:40;;;;;;;6.73;4.90;;;21.40;99.90;;;;;;4994764;28;20269;-74
2022/06/13 07:51:07;;;;;;;5.70;4.80;;;21.40;99.90;;;;;;4995058;28;20627;-70
2022/06/13 07:53:34;;;;;;;7.80;4.87;;;21.60;99.90;;;;;;4994848;28;20315;-70
2022/06/13 07:56:25;;;;;;;7.33;4.50;;;21.80;99.90;;;;;;4995032;28;20197;-70
2022/06/13 07:58:53;;;;;;;6.73;4.63;;;22.00;99.90;;;;;;4994757;28;20226;-72
2022/06/13 08:01:21;;;;;;;4.43;3.73;;;22.20;99.90;;;;;;4994640;28;20201;-69
2022/06/13 08:03:49;;;;;;;7.15;4.35;;;22.30;99.90;;;;;;4994713;28;20232;-69
2022/06/13 08:06:16;;;;;;;4.47;3.77;;;22.10;99.90;;;;;;4994760;28;20205;-72
2022/06/13 08:08:45;;;;;;;6.57;3.73;;;22.20;99.90;;;;;;4994401;28;20576;-70
2022/06/13 08:11:15;;;;;;;5.03;3.70;;;22.20;99.90;;;;;;4994824;28;20201;-70
2022/06/13 08:13:42;;;;;;;7.30;3.80;;;22.10;99.90;;;;;;4994757;28;20208;-69
2022/06/13 08:16:11;;;;;;;4.60;3.87;;;22.10;99.90;;;;;;4994711;28;20201;-71
2022/06/13 08:18:42;;;;;;;5.97;4.00;;;22.10;99.90;;;;;;4979332;28;20193;-71
2022/06/13 08:21:11;;;;;;;6.30;3.87;;;21.80;99.90;;;;;;4994194;28;20200;-74
2022/06/13 08:23:39;;;;;;;5.57;4.37;;;21.70;99.90;;;;;;4978425;28;20681;-72
2022/06/13 08:26:06;;;;;;;8.10;4.80;;;21.70;99.90;;;;;;4995333;28;20220;-70
2022/06/13 08:28:33;;;;;;;6.23;4.30;;;21.80;99.90;;;;;;4994047;28;20689;-69
2022/06/13 08:31:12;;;;;;;6.07;4.60;;;21.70;99.90;;;;;;4994060;28;20196;-71
2022/06/13 08:33:40;;;;;;;8.87;5.13;;;21.60;99.90;;;;;;4994705;28;20292;-67
2022/06/13 08:36:08;;;;;;;9.07;4.90;;;21.60;99.90;;;;;;4994153;28;20217;-66
2022/06/13 08:38:35;;;;;;;5.47;4.70;;;21.60;99.90;;;;;;4993423;28;20203;-72
2022/06/13 08:41:07;;;;;;;8.70;5.40;;;21.70;99.90;;;;;;4993515;28;20689;-69
2022/06/13 08:44:09;;;;;;;7.20;5.30;;;21.70;99.90;;;;;;4993187;28;20223;-70
2022/06/13 08:47:02;;;;;;;6.63;4.73;;;21.80;99.90;;;;;;4900136;29;20201;-71
2022/06/13 08:49:48;;;;;;;7.30;4.73;;;21.70;99.90;;;;;;4915843;29;20218;-77
2022/06/13 08:52:31;;;;;;;5.70;5.10;;;21.80;99.90;;;;;;4915985;29;20219;-73
2022/06/13 08:55:04;;;;;;;8.00;5.37;;;21.80;99.90;;;;;;4884625;29;20215;-68
2022/06/13 08:57:34;;;;;;;7.00;5.20;;;21.80;99.90;;;;;;4898451;29;20737;-70
2022/06/13 09:00:18;;;;;;;5.27;4.77;;;21.80;99.90;;;;;;4899853;29;20213;-69
2022/06/13 09:03:04;;;;;;;7.20;4.70;;;21.70;99.90;;;;;;4915756;29;20283;-67
2022/06/13 09:05:39;;;;;;;7.33;4.90;;;21.60;99.90;;;;;;4899451;29;20255;-70
2022/06/13 09:08:15;;;;;;;5.60;4.17;;;21.50;99.90;;;;;;4899857;29;20223;-67
2022/06/13 09:11:06;;;;;;;5.27;4.07;;;21.20;99.90;;;;;;4915340;29;20211;-67
2022/06/13 09:13:39;;;;;;;4.90;3.83;;;21.00;99.90;;;;;;4915727;29;20206;-68
2022/06/13 09:16:19;;;;;;;6.53;4.40;;;20.90;99.90;;;;;;4899710;29;20210;-71
2022/06/13 09:19:07;;;;;;;4.70;4.10;;;20.80;99.90;;;;;;4899860;29;20311;-72
2022/06/13 09:21:43;;;;;;;4.87;4.33;;;20.90;99.90;;;;;;4919090;28;20287;-68
2022/06/13 09:24:35;;;;;;;6.23;4.33;;;20.60;99.90;;;;;;5009351;28;20295;-70
2022/06/13 09:27:14;;;;;;;6.40;4.30;;;20.50;99.90;;;;;;4992970;28;20330;-71
2022/06/13 09:29:59;;;;;;;8.17;4.63;;;20.50;99.90;;;;;;4994388;28;20556;-69
2022/06/13 09:32:38;;;;;;;6.27;4.63;;;20.30;99.90;;;;;;4992953;28;20247;-67
2022/06/13 09:35:11;;;;;;;5.37;4.87;;;20.20;99.90;;;;;;4993140;28;20200;-66
2022/06/13 09:37:53;;;;;;;5.77;4.93;;;20.10;99.90;;;;;;4992949;28;20255;-67
2022/06/13 09:40:31;;;;;;;8.87;5.03;;;20.10;99.90;;;;;;5009353;28;20597;-69
2022/06/13 09:43:39;;;;;;;5.83;5.20;;;19.90;99.90;;;;;;4993137;28;20236;-68
2022/06/13 09:46:32;;;;;;;7.73;5.30;;;19.60;99.90;;;;;;5008788;28;20197;-67
2022/06/13 09:49:11;;;;;;;13.67;5.60;;;19.60;99.90;;;;;;5009224;28;20324;-67
2022/06/13 09:52:01;;;;;;;6.47;5.37;;;19.70;99.90;;;;;;5008948;28;20294;-67
2022/06/13 09:54:48;;;;;;;9.30;6.00;;;19.70;99.90;;;;;;4992690;28;20235;-68
2022/06/13 09:57:32;;;;;;;7.97;5.90;;;19.50;99.90;;;;;;4994060;28;20634;-71
2022/06/13 10:00:08;;;;;;;6.33;5.73;;;19.50;99.90;;;;;;4992580;28;20247;-79
2022/06/13 10:02:42;;;;;;;7.57;6.10;;;19.40;99.90;;;;;;4992568;28;20315;-69
2022/06/13 10:05:26;;;;;;;8.07;6.73;;;19.30;99.90;;;;;;4992130;28;20246;-71
2022/06/13 10:08:02;;;;;;;8.57;6.37;;;19.20;99.90;;;;;;5008669;28;20587;-76
2022/06/13 10:10:51;;;;;;;9.30;7.00;;;19.20;99.90;;;;;;4992575;28;20192;-77
2022/06/13 10:13:44;;;;;;;8.93;6.83;;;19.20;99.90;;;;;;4988304;28;20538;-72
2022/06/13 10:16:16;;;;;;;10.50;7.23;;;19.10;99.90;;;;;;4992048;28;20299;-67
2022/06/13 10:19:36;;;;;;;10.10;6.17;;;19.00;99.90;;;;;;4992185;28;20185;-74
2022/06/13 10:22:17;;;;;;;7.33;5.30;;;18.80;99.90;;;;;;4952109;29;20308;-69
2022/06/13 10:25:25;;;;;;;7.37;5.90;;;18.90;99.90;;;;;;4952118;29;20272;-68
2022/06/13 10:27:58;;;;;;;8.10;5.97;;;18.80;99.90;;;;;;4935632;29;20394;-67
2022/06/13 10:30:41;;;;;;;7.07;5.33;;;18.80;99.90;;;;;;4952327;28;20190;-69
2022/06/13 10:33:26;;;;;;;6.97;5.43;;;18.80;99.90;;;;;;4936297;29;20290;-67
2022/06/13 10:36:13;;;;;;;6.60;5.17;;;18.90;99.90;;;;;;4951954;29;20221;-68
2022/06/13 10:38:57;;;;;;;6.53;5.10;;;18.80;99.90;;;;;;4936222;29;20356;-68
2022/06/13 10:41:27;;;;;;;9.57;5.37;;;18.80;99.90;;;;;;4936357;29;20210;-73
2022/06/13 10:43:55;;;;;;;6.67;4.93;;;18.80;99.90;;;;;;4951856;29;20293;-71
2022/06/13 10:46:23;;;;;;;9.13;5.90;;;18.80;99.90;;;;;;4968390;28;20202;-76
2022/06/13 10:49:13;;;;;;;7.00;5.13;;;18.80;99.90;;;;;;4969255;28;20253;-68
2022/06/13 10:51:42;;;;;;;6.17;5.20;;;18.80;99.90;;;;;;4952527;29;20647;-76
2022/06/13 10:54:22;;;;;;;6.57;5.20;;;18.90;99.90;;;;;;4952162;29;20292;-75
2022/06/13 10:56:50;;;;;;;6.67;5.17;;;19.00;99.90;;;;;;4981510;28;20204;-75
2022/06/13 10:59:23;;;;;;;5.23;4.70;;;19.00;99.90;;;;;;4991899;28;20260;-68
2022/06/13 11:02:00;;;;;;;5.57;4.77;;;19.10;99.90;;;;;;4993819;28;20242;-71
2022/06/13 11:04:32;;;;;;;5.97;4.90;;;19.30;99.90;;;;;;4995339;28;20556;-70
2022/06/13 11:07:24;;;;;;;8.00;4.90;;;19.40;99.90;;;;;;4995586;28;20225;-79
2022/06/13 11:09:57;;;;;;;5.70;4.57;;;19.50;99.90;;;;;;4995867;28;20201;-68
2022/06/13 11:12:32;;;;;;;5.87;4.50;;;19.70;99.90;;;;;;4995412;28;20208;-70
2022/06/13 11:23:51;;;;;;;5.57;4.07;;;20.30;99.90;;;;;;4977360;28;20621;-68
2022/06/13 11:29:06;;;;;;;5.10;4.30;;;20.50;99.90;;;;;;4976219;28;20251;-70
2022/06/13 11:31:33;;;;;;;5.30;4.27;;;20.20;99.90;;;;;;4975630;28;20205;-71
2022/06/13 11:34:29;;;;;;;6.43;4.67;;;20.10;99.90;;;;;;4975975;28;20248;-68
2022/06/13 11:37:22;;;;;;;5.27;4.43;;;19.90;99.90;;;;;;4975583;28;20698;-74
2022/06/13 11:39:52;;;;;;;8.03;5.00;;;19.60;99.90;;;;;;4976310;28;20256;-70
2022/06/13 11:42:24;;;;;;;7.23;5.33;;;19.50;99.90;;;;;;4977037;28;20189;-70
2022/06/13 11:45:17;;;;;;;7.13;5.50;;;19.40;99.90;;;;;;4975561;28;20201;-68
2022/06/13 11:47:52;;;;;;;7.10;5.53;;;19.40;99.90;;;;;;4975292;28;20316;-71
2022/06/13 11:50:18;;;;;;;7.07;5.53;;;19.50;99.90;;;;;;4991655;28;20224;-68
2022/06/13 11:55:43;;;;;;;7.57;5.73;;;19.40;99.90;;;;;;4976612;28;20198;-68
2022/06/13 11:58:19;;;;;;;7.37;5.70;;;19.50;99.90;;;;;;4992109;28;20189;-68
2022/06/13 12:01:00;;;;;;;8.13;5.80;;;19.50;99.90;;;;;;4991836;28;20236;-68
2022/06/13 12:03:28;;;;;;;8.03;5.47;;;19.60;99.90;;;;;;4975072;28;20232;-68
2022/06/13 12:06:11;;;;;;;6.40;5.60;;;19.70;99.90;;;;;;4975096;28;20198;-69
2022/06/13 12:08:38;;;;;;;8.40;6.10;;;19.70;99.90;;;;;;4975254;28;20253;-70
2022/06/13 12:11:14;;;;;;;10.13;6.30;;;19.60;99.90;;;;;;4976290;28;20281;-73
2022/06/13 12:13:45;;;;;;;8.53;5.90;;;19.40;99.90;;;;;;4975095;28;20201;-76
2022/06/13 12:16:27;;;;;;;7.30;5.33;;;19.20;99.90;;;;;;4975101;28;20194;-69
2022/06/13 12:19:21;;;;;;;6.93;5.20;;;19.00;99.90;;;;;;4991195;28;20206;-70
2022/06/13 12:22:06;;;;;;;10.70;6.10;;;19.00;99.90;;;;;;4974734;28;20635;-70
2022/06/13 12:24:57;;;;;;;6.97;5.20;;;18.80;99.90;;;;;;4991192;28;20235;-69
2022/06/13 12:27:50;;;;;;;5.50;4.70;;;18.60;99.90;;;;;;4991644;28;20661;-71
2022/06/13 12:30:41;;;;;;;7.43;4.63;;;18.40;99.90;;;;;;4878999;29;20271;-69
2022/06/13 12:33:35;;;;;;;5.97;4.80;;;18.30;99.90;;;;;;4863112;29;20207;-70
2022/06/13 12:36:20;;;;;;;6.07;4.70;;;18.40;99.90;;;;;;4878414;29;20651;-74
2022/06/13 12:38:58;;;;;;;5.20;4.30;;;18.30;99.90;;;;;;4875336;29;20200;-69
2022/06/13 12:41:38;;;;;;;4.57;3.87;;;18.40;99.90;;;;;;4878356;29;20299;-68
2022/06/13 12:44:20;;;;;;;5.67;2.70;;;18.20;99.90;;;;;;4878463;29;20667;-72
2022/06/13 12:46:47;;;;;;;4.33;2.30;;;18.00;99.90;;;;;;4877993;29;20196;-68
2022/06/13 12:49:45;;;;;;;4.63;2.07;;;17.80;99.90;;;;;;4862859;29;20329;-72
2022/06/13 12:52:45;;;;;;;3.13;1.40;;;17.70;99.90;;;;;;4878132;29;20205;-72
2022/06/13 12:55:40;;;;;;;1.60;1.37;;;17.50;99.90;;;;;;4862174;29;20293;-67
2022/06/13 12:58:37;;;;;;;2.63;1.40;;;17.50;99.90;;;;;;4862523;29;20299;-67
2022/06/13 13:01:18;;;;;;;1.97;1.20;;;17.40;99.90;;;;;;4878129;29;20304;-68
2022/06/13 13:04:12;;;;;;;2.00;1.10;;;17.00;99.90;;;;;;4877760;29;21620;-67
2022/06/13 13:07:13;;;;;;;1.87;1.27;;;16.80;99.90;;;;;;4898758;28;20662;-68
2022/06/13 13:09:58;;;;;;;4.10;1.83;;;16.50;99.90;;;;;;4986210;28;20216;-67
2022/06/13 13:12:55;;;;;;;1.87;1.37;;;16.20;99.90;;;;;;4994312;28;20197;-69
2022/06/13 13:15:31;;;;;;;2.23;1.50;;;15.90;99.90;;;;;;4994273;28;20197;-67
2022/06/13 13:18:17;;;;;;;3.60;1.50;;;15.80;99.90;;;;;;4993265;28;20200;-67
2022/06/13 13:20:53;;;;;;;4.63;1.67;;;15.60;99.90;;;;;;4993125;28;20307;-66
2022/06/13 13:23:27;;;;;;;5.93;2.13;;;15.10;99.90;;;;;;4992303;28;20219;-68
2022/06/13 13:25:57;;;;;;;4.00;1.90;;;14.90;99.90;;;;;;4992969;28;20621;-73
2022/06/13 13:28:39;;;;;;;3.77;1.90;;;14.80;99.90;;;;;;4992600;28;20435;-68
2022/06/13 13:31:29;;;;;;;3.43;2.20;;;14.70;99.90;;;;;;4992658;28;20232;-67
2022/06/13 13:34:35;;;;;;;4.60;2.23;;;14.50;99.90;;;;;;4992620;28;20215;-64
2022/06/13 13:37:31;;;;;;;4.27;2.20;;;14.40;99.90;;;;;;4972039;28;20222;-67
2022/06/13 13:40:05;;;;;;;4.00;2.33;;;14.30;99.90;;;;;;4955520;28;20209;-62
2022/06/13 13:42:54;;;;;;;4.23;2.80;;;14.20;99.90;;;;;;4955952;28;20207;-65
2022/06/13 13:45:36;;;;;;;3.90;2.50;;;14.20;99.90;;;;;;4955870;28;20649;-62
2022/06/13 13:48:28;;;;;;;4.97;2.80;;;14.20;99.90;;;;;;4956186;28;20281;-64
2022/06/13 13:51:01;;;;;;;4.87;3.07;;;14.10;99.90;;;;;;4972346;28;20235;-63
2022/06/13 13:53:39;;;;;;;7.23;3.00;;;14.10;99.90;;;;;;4955743;28;20308;-63
2022/06/13 13:56:19;;;;;;;6.47;3.10;;;14.10;99.90;;;;;;4955559;28;20208;-63